Time;durP1;ratioP1;P1;durP2;ratioP2;P2;SDS_P1;SDS_P2;PMS_P1;PMS_P2;Temp;Humidity;BMP_temperature;BMP_pressure;BME280_temperature;BME280_humidity;BME280_pressure;Samples;Min_cycle;Max_cycle;Signal;HPM_P1;HPM_P2
2023/10/05 00:01:27;;;;;;;4.20;2.40;;;;;;;10.80;97.13;97424.33;108496;1278;22577;-88
2023/10/05 00:03:53;;;;;;;5.70;2.70;;;;;;;10.80;96.96;97420.86;108372;1273;138400;-88
2023/10/05 00:06:24;;;;;;;5.50;2.60;;;;;;;10.80;96.92;97421.70;110206;1278;22983;-89
2023/10/05 00:08:52;;;;;;;4.90;2.40;;;;;;;10.80;96.89;97417.55;110043;1278;22523;-88
2023/10/05 00:11:23;;;;;;;5.00;2.10;;;;;;;10.80;96.58;97417.02;109952;1278;138528;-88
2023/10/05 00:13:57;;;;;;;6.60;2.70;;;;;;;10.80;96.75;97420.95;107223;1278;25549;-88
2023/10/05 00:16:35;;;;;;;5.70;2.70;;;;;;;10.80;96.71;97416.83;109867;1272;139400;-89
2023/10/05 00:19:12;;;;;;;6.70;2.90;;;;;;;10.78;96.54;97411.66;110261;1278;22205;-89
2023/10/05 00:21:47;;;;;;;6.90;2.80;;;;;;;10.78;96.87;97404.41;110150;1273;139412;-89
2023/10/05 00:24:14;;;;;;;5.40;2.70;;;;;;;10.77;96.84;97403.25;107123;1278;22575;-88
2023/10/05 00:26:43;;;;;;;4.80;2.50;;;;;;;10.77;96.52;97396.71;107128;1278;24200;-88
2023/10/05 00:31:44;;;;;;;4.40;2.80;;;;;;;10.73;96.74;97401.06;107302;1277;24198;-88
2023/10/05 00:34:22;;;;;;;5.30;2.60;;;;;;;10.72;96.96;97399.63;107205;1278;138110;-88
2023/10/05 00:36:55;;;;;;;6.60;3.00;;;;;;;10.71;97.07;97392.41;107230;1278;22578;-88
2023/10/05 00:39:22;;;;;;;6.50;2.70;;;;;;;10.70;97.00;97385.11;107947;1278;22673;-88
2023/10/05 00:41:55;;;;;;;5.70;2.60;;;;;;;10.70;97.24;97387.22;107183;1278;138554;-89
2023/10/05 00:44:23;;;;;;;6.60;2.90;;;;;;;10.68;97.23;97384.77;107165;1273;22679;-88
2023/10/05 00:46:49;;;;;;;6.70;2.80;;;;;;;10.67;97.15;97386.86;107150;1275;138850;-89
2023/10/05 00:49:22;;;;;;;5.50;2.50;;;;;;;10.65;97.33;97381.49;107267;1278;24358;-88
2023/10/05 00:52:35;;;;;;;7.00;2.60;;;;;;;10.64;97.41;97377.04;107211;1278;138984;-89
2023/10/05 00:54:36;;;;;;;5.30;2.50;;;;;;;10.63;97.29;97375.61;107072;1278;22554;-88
2023/10/05 00:57:12;;;;;;;6.60;3.20;;;;;;;10.62;97.32;97371.02;110216;1278;22900;-89
2023/10/05 00:59:46;;;;;;;6.50;2.50;;;;;;;10.61;97.38;97370.95;110013;1278;137906;-89
2023/10/05 01:02:20;;;;;;;4.90;2.00;;;;;;;10.61;97.25;97373.73;107909;1278;23224;-88
2023/10/05 01:04:55;;;;;;;5.40;3.00;;;;;;;10.61;97.27;97372.71;110085;1278;139201;-89
2023/10/05 01:14:58;;;;;;;7.80;3.00;;;;;;;10.63;97.13;97357.31;107199;1277;22544;-89
2023/10/05 01:17:26;;;;;;;6.00;2.50;;;;;;;10.63;97.01;97355.20;107158;1276;139215;-88
2023/10/05 01:19:57;;;;;;;7.20;2.80;;;;;;;10.62;97.15;97360.53;107071;1278;22536;-87
2023/10/05 01:22:33;;;;;;;5.30;2.50;;;;;;;10.60;97.30;97355.48;107246;1277;138314;-88
2023/10/05 01:25:02;;;;;;;5.50;2.30;;;;;;;10.59;97.20;97354.88;107232;1278;24199;-88
2023/10/05 01:27:29;;;;;;;7.40;2.60;;;;;;;10.58;97.13;97354.48;107245;1277;24199;-87
2023/10/05 01:29:56;;;;;;;5.30;2.40;;;;;;;10.57;97.20;97349.91;107169;1256;137605;-87
2023/10/05 01:32:23;;;;;;;5.00;2.50;;;;;;;10.56;97.38;97347.11;107211;1278;24111;-89
2023/10/05 01:34:52;;;;;;;4.80;2.30;;;;;;;10.55;97.21;97345.06;107156;1278;138886;-88
2023/10/05 01:37:23;;;;;;;5.70;2.20;;;;;;;10.54;97.30;97347.15;107132;1278;22545;-89
2023/10/05 01:39:50;;;;;;;4.50;2.20;;;;;;;10.55;97.59;97350.52;107143;1278;137994;-88
2023/10/05 01:42:16;;;;;;;3.80;2.30;;;;;;;10.55;97.47;97356.05;107241;1272;22573;-89
2023/10/05 01:44:49;;;;;;;4.90;2.50;;;;;;;10.55;97.51;97351.71;107296;1277;22546;-88
2023/10/05 01:47:16;;;;;;;5.40;2.70;;;;;;;10.54;97.68;97346.23;107156;1276;138814;-89
2023/10/05 01:49:43;;;;;;;6.70;2.50;;;;;;;10.53;97.53;97340.38;107237;1272;24242;-88
2023/10/05 01:52:10;;;;;;;5.90;2.00;;;;;;;10.53;97.65;97333.30;107165;1278;138144;-88
2023/10/05 01:54:38;;;;;;;4.70;2.00;;;;;;;10.54;97.82;97329.23;107139;1278;25412;-89
2023/10/05 01:57:09;;;;;;;3.80;1.90;;;;;;;10.55;97.65;97331.77;107233;1273;25307;-88
2023/10/05 01:59:36;;;;;;;4.50;2.50;;;;;;;10.55;97.69;97330.18;107081;1278;139296;-88
2023/10/05 02:02:15;;;;;;;3.00;1.80;;;;;;;10.57;97.67;97325.70;107159;1278;24278;-88
2023/10/05 02:04:44;;;;;;;4.40;1.90;;;;;;;10.59;97.65;97320.30;107093;1278;137992;-89
2023/10/05 02:07:17;;;;;;;4.20;2.30;;;;;;;10.58;97.62;97322.26;107266;1278;22521;-88
2023/10/05 02:09:43;;;;;;;;;;;;;;;10.59;97.70;97323.39;107059;1272;138390;-89
2023/10/05 02:12:10;;;;;;;4.70;2.10;;;;;;;10.59;97.82;97316.15;107261;1278;22534;-88
2023/10/05 02:14:40;;;;;;;4.00;1.60;;;;;;;10.59;97.79;97315.60;107288;1277;22527;-88
2023/10/05 02:17:13;;;;;;;5.30;1.90;;;;;;;10.59;97.54;97312.71;106979;1278;137968;-89
2023/10/05 02:19:41;;;;;;;5.10;2.60;;;;;;;10.62;97.76;97308.19;107351;1275;25353;-89
2023/10/05 02:22:11;;;;;;;4.40;1.80;;;;;;;10.63;97.76;97310.83;107096;1278;139006;-89
2023/10/05 02:24:40;;;;;;;6.60;2.40;;;;;;;10.64;97.74;97312.45;107295;1272;22573;-89
2023/10/05 02:27:11;;;;;;;4.40;2.10;;;;;;;10.64;97.72;97309.30;110207;1278;22274;-88
2023/10/05 02:29:42;;;;;;;3.70;2.00;;;;;;;10.65;97.85;97306.41;107226;1273;137872;-88
2023/10/05 02:32:15;;;;;;;4.30;1.80;;;;;;;10.67;97.78;97306.92;107129;1278;22555;-88
2023/10/05 02:34:44;;;;;;;6.00;2.20;;;;;;;10.71;98.07;97310.51;107138;1276;138110;-89
2023/10/05 02:37:12;;;;;;;5.70;2.80;;;;;;;10.74;98.44;97312.96;107323;1277;25895;-89
2023/10/05 02:39:39;;;;;;;3.40;1.80;;;;;;;10.77;98.17;97314.77;107105;1272;139803;-89
2023/10/05 02:42:12;;;;;;;3.50;2.50;;;;;;;10.80;98.35;97315.31;107275;1278;22664;-89
2023/10/05 02:44:39;;;;;;;3.90;1.70;;;;;;;10.82;98.07;97316.09;107150;1278;22995;-89
2023/10/05 02:47:08;;;;;;;4.40;1.80;;;;;;;10.85;98.26;97312.67;107229;1278;137876;-89
2023/10/05 02:49:44;;;;;;;4.10;2.20;;;;;;;10.87;97.89;97313.65;107131;1276;22524;-89
2023/10/05 02:52:13;;;;;;;5.00;1.80;;;;;;;10.90;97.40;97313.54;107174;1263;138610;-89
2023/10/05 02:54:40;;;;;;;3.20;1.80;;;;;;;10.94;97.34;97309.35;110098;1278;22210;-90
2023/10/05 02:57:20;;;;;;;3.20;1.90;;;;;;;10.97;96.88;97306.72;110266;1278;23049;-90
2023/10/05 02:59:46;;;;;;;3.50;1.90;;;;;;;11.02;96.16;97301.15;108962;1277;138718;-90
2023/10/05 03:02:16;;;;;;;2.60;1.60;;;;;;;11.07;96.41;97301.66;107142;1278;22540;-89
2023/10/05 03:04:56;;;;;;;3.60;1.90;;;;;;;11.11;96.41;97300.42;107173;1278;137778;-88
2023/10/05 03:07:26;;;;;;;3.80;2.00;;;;;;;11.13;95.99;97294.95;107303;1271;22521;-88
2023/10/05 03:09:58;;;;;;;3.40;1.90;;;;;;;11.14;95.93;97293.14;107018;1273;138835;-89
2023/10/05 03:12:25;;;;;;;4.40;2.10;;;;;;;11.15;95.08;97288.38;107097;1278;22759;-88
2023/10/05 03:14:54;;;;;;;6.80;2.10;;;;;;;11.17;95.37;97286.27;107253;1278;22992;-89
2023/10/05 03:17:21;;;;;;;3.70;1.80;;;;;;;11.17;94.80;97281.06;107206;1278;138228;-89
2023/10/05 03:19:50;;;;;;;4.10;1.80;;;;;;;11.17;94.89;97283.27;107239;1278;22534;-88
2023/10/05 03:22:17;;;;;;;3.80;1.80;;;;;;;11.18;94.80;97285.81;107202;1257;140025;-89
2023/10/05 03:24:47;;;;;;;5.00;2.00;;;;;;;11.18;94.67;97286.30;107256;1278;22643;-89
2023/10/05 03:27:14;;;;;;;2.80;1.70;;;;;;;11.18;94.89;97284.55;107328;1275;23829;-89
2023/10/05 03:29:45;;;;;;;4.30;1.90;;;;;;;11.18;93.24;97281.09;107044;1273;138037;-89
2023/10/05 03:34:55;;;;;;;5.20;1.70;;;;;;;11.25;94.20;97284.56;107047;1278;137834;-89
2023/10/05 03:37:22;;;;;;;3.60;1.60;;;;;;;11.25;93.27;97289.73;107297;1278;24551;-88
2023/10/05 03:39:51;;;;;;;3.20;1.80;;;;;;;11.25;93.13;97286.77;107153;1273;138027;-89
2023/10/05 03:42:21;;;;;;;3.70;1.60;;;;;;;11.25;93.48;97290.25;110296;1278;22177;-90
2023/10/05 03:45:04;;;;;;;4.90;1.90;;;;;;;11.25;92.98;97293.77;110315;1273;22253;-90
2023/10/05 03:47:40;;;;;;;5.70;1.80;;;;;;;11.26;92.32;97293.23;107929;1273;138102;-89
2023/10/05 03:50:16;;;;;;;3.10;2.10;;;;;;;11.29;92.58;97289.42;107174;1274;24347;-89
2023/10/05 03:52:45;;;;;;;4.90;2.00;;;;;;;11.32;93.05;97292.63;110149;1272;138714;-90
2023/10/05 03:55:11;;;;;;;4.00;1.90;;;;;;;11.32;93.17;97295.37;110176;1278;22339;-86
2023/10/05 03:57:38;;;;;;;3.90;1.70;;;;;;;11.31;93.61;97293.88;110182;1278;138963;-88
2023/10/05 04:00:31;;;;;;;4.80;2.00;;;;;;;11.30;93.81;97296.41;108929;1278;24471;-87
2023/10/05 04:02:58;;;;;;;3.30;1.50;;;;;;;11.29;93.14;97296.74;107230;1278;22581;-88
2023/10/05 04:05:24;;;;;;;3.40;1.70;;;;;;;11.29;93.74;97297.14;107137;1278;137882;-88
2023/10/05 04:07:52;;;;;;;4.00;2.20;;;;;;;11.26;93.19;97291.90;107261;1257;25472;-88
2023/10/05 04:10:38;;;;;;;4.30;1.80;;;;;;;11.23;93.37;97295.65;107088;1278;138233;-88
2023/10/05 04:13:05;;;;;;;4.00;1.80;;;;;;;11.19;93.56;97298.33;107363;1278;22747;-87
2023/10/05 04:15:31;;;;;;;4.00;2.30;;;;;;;11.17;92.64;97306.56;107274;1273;24759;-87
2023/10/05 04:17:58;;;;;;;3.40;2.30;;;;;;;11.17;93.19;97303.73;107162;1278;24309;-89
2023/10/05 04:20:28;;;;;;;5.70;2.40;;;;;;;11.17;93.20;97302.16;107329;1278;22560;-87
2023/10/05 04:22:55;;;;;;;3.10;1.60;;;;;;;11.16;93.38;97301.45;107203;1272;138264;-89
2023/10/05 04:25:22;;;;;;;3.20;1.70;;;;;;;11.15;93.49;97300.91;107261;1278;24357;-88
2023/10/05 04:27:49;;;;;;;4.20;2.10;;;;;;;11.12;93.73;97297.85;107158;1259;138783;-88
2023/10/05 04:30:21;;;;;;;2.80;1.70;;;;;;;11.10;94.17;97299.80;107257;1278;22557;-88
2023/10/05 04:32:48;;;;;;;3.60;1.50;;;;;;;11.08;93.92;97300.20;107617;1272;22647;-88
2023/10/05 04:35:28;;;;;;;3.50;2.20;;;;;;;11.07;94.05;97299.80;107116;1264;138105;-88
2023/10/05 04:37:55;;;;;;;3.60;1.60;;;;;;;11.06;92.77;97297.48;107276;1278;24996;-88
2023/10/05 04:40:24;;;;;;;4.80;1.70;;;;;;;11.07;93.56;97299.05;107148;1278;138560;-88
2023/10/05 04:42:51;;;;;;;3.30;1.30;;;;;;;11.08;93.58;97295.29;108507;1279;24423;-88
2023/10/05 04:45:20;;;;;;;4.10;1.80;;;;;;;11.10;92.65;97295.84;107199;1278;22632;-88
2023/10/05 04:47:50;;;;;;;5.10;1.90;;;;;;;11.12;92.50;97296.81;110168;1278;138652;-89
2023/10/05 04:50:17;;;;;;;2.40;1.30;;;;;;;11.13;92.11;97295.80;110268;1278;22300;-89
2023/10/05 04:52:50;;;;;;;5.20;1.40;;;;;;;11.16;91.24;97300.25;110154;1278;138126;-90
2023/10/05 04:55:22;;;;;;;4.30;1.90;;;;;;;11.20;90.63;97295.33;108215;1278;22675;-88
2023/10/05 04:57:55;;;;;;;2.40;1.10;;;;;;;11.23;90.26;97295.13;107189;1278;138333;-88
2023/10/05 05:03:32;;;;;;;2.60;1.70;;;;;;;11.29;89.34;97285.29;110185;1278;22196;-88
2023/10/05 05:08:40;;;;;;;3.30;1.50;;;;;;;11.36;89.10;97277.63;107243;1278;24387;-88
2023/10/05 05:11:11;;;;;;;3.00;1.50;;;;;;;11.39;88.48;97274.16;107159;1275;137826;-88
2023/10/05 05:13:38;;;;;;;2.60;1.40;;;;;;;11.42;88.51;97272.98;110168;1268;22088;-88
2023/10/05 05:16:05;;;;;;;5.90;1.50;;;;;;;11.45;87.76;97274.70;110201;1278;138322;-89
2023/10/05 05:18:32;;;;;;;3.90;1.70;;;;;;;11.50;87.16;97270.69;107523;1278;26383;-88
2023/10/05 05:20:58;;;;;;;2.80;1.30;;;;;;;11.56;86.89;97267.46;107275;1273;22533;-88
2023/10/05 05:23:25;;;;;;;3.40;1.70;;;;;;;11.61;86.68;97270.58;107177;1272;138641;-88
2023/10/05 05:25:52;;;;;;;2.90;1.50;;;;;;;11.65;86.36;97268.57;107233;1274;22553;-88
2023/10/05 05:28:18;;;;;;;8.70;6.50;;;;;;;11.69;85.91;97269.70;107114;1273;139011;-88
2023/10/05 05:30:47;;;;;;;5.30;4.20;;;;;;;11.73;85.68;97270.10;107289;1275;22533;-89
2023/10/05 05:33:13;;;;;;;3.70;1.80;;;;;;;11.78;84.88;97272.23;107308;1277;22523;-89
2023/10/05 05:35:40;;;;;;;3.10;1.50;;;;;;;11.83;84.63;97270.99;107140;1278;139029;-88
2023/10/05 05:38:09;;;;;;;4.40;1.60;;;;;;;11.88;84.39;97269.39;107102;1278;22638;-88
2023/10/05 05:40:37;;;;;;;4.40;2.40;;;;;;;11.92;84.22;97269.60;107123;1274;138365;-88
2023/10/05 05:43:11;;;;;;;3.80;1.50;;;;;;;11.96;83.91;97269.81;107263;1278;22659;-89
2023/10/05 05:45:46;;;;;;;3.30;1.40;;;;;;;12.00;83.92;97268.39;107029;1278;137944;-89
2023/10/05 05:48:16;;;;;;;2.60;1.20;;;;;;;12.03;84.11;97265.09;107235;1278;22661;-89
2023/10/05 05:50:43;;;;;;;4.10;1.50;;;;;;;12.06;84.88;97270.55;108148;1273;23248;-88
2023/10/05 05:53:12;;;;;;;2.60;1.40;;;;;;;12.07;83.78;97269.36;108585;1278;138465;-87
2023/10/05 05:55:43;;;;;;;3.40;1.30;;;;;;;12.10;83.70;97268.52;107304;1272;25548;-89
2023/10/05 05:58:16;;;;;;;4.70;1.70;;;;;;;12.13;83.26;97266.30;107176;1278;138565;-88
2023/10/05 06:00:46;;;;;;;2.70;1.30;;;;;;;12.17;82.96;97264.80;107290;1272;22524;-89
2023/10/05 06:03:14;;;;;;;2.80;1.20;;;;;;;12.20;82.98;97262.89;109638;1278;24375;-88
2023/10/05 06:05:40;;;;;;;3.30;1.10;;;;;;;12.23;82.69;97262.68;107190;1278;137880;-88
2023/10/05 06:08:09;;;;;;;2.70;1.50;;;;;;;12.26;82.53;97264.13;107267;1277;22632;-89
2023/10/05 06:10:36;;;;;;;3.00;1.40;;;;;;;12.28;82.23;97262.84;107185;1278;137811;-88
2023/10/05 06:13:05;;;;;;;4.90;1.60;;;;;;;12.31;81.93;97265.48;107241;1278;22541;-88
2023/10/05 06:15:31;;;;;;;4.10;1.40;;;;;;;12.33;81.79;97266.25;107242;1278;25415;-88
2023/10/05 06:18:01;;;;;;;6.00;1.20;;;;;;;12.35;81.34;97269.89;107257;1275;22569;-88
2023/10/05 06:20:27;;;;;;;3.30;1.40;;;;;;;12.37;81.53;97268.12;107285;1272;23264;-89
2023/10/05 06:22:54;;;;;;;2.90;1.30;;;;;;;12.38;81.60;97260.35;107109;1278;137816;-88
2023/10/05 06:25:21;;;;;;;2.50;1.30;;;;;;;12.39;81.38;97263.34;107268;1278;23213;-89
2023/10/05 06:27:47;;;;;;;3.00;1.30;;;;;;;12.40;81.22;97257.98;107191;1278;138831;-89
2023/10/05 06:30:14;;;;;;;2.90;1.60;;;;;;;12.43;81.26;97258.59;107206;1278;23986;-88
2023/10/05 06:32:43;;;;;;;2.70;1.30;;;;;;;12.44;81.41;97250.23;107263;1267;22605;-88
2023/10/05 06:35:11;;;;;;;3.10;1.80;;;;;;;12.46;80.72;97250.03;110046;1278;138801;-89
2023/10/05 06:37:41;;;;;;;4.00;1.80;;;;;;;12.50;80.56;97253.06;110255;1272;22206;-88
2023/10/05 06:40:21;;;;;;;4.10;1.60;;;;;;;12.54;80.69;97252.44;108919;1278;138432;-89
2023/10/05 06:42:51;;;;;;;2.40;1.10;;;;;;;12.58;80.97;97247.48;107243;1278;24353;-88
2023/10/05 06:45:23;;;;;;;4.00;1.40;;;;;;;12.61;80.70;97251.63;107198;1272;23276;-89
2023/10/05 06:47:50;;;;;;;4.50;1.60;;;;;;;12.64;80.34;97259.47;107224;1272;137596;-89
2023/10/05 06:50:17;;;;;;;3.30;1.20;;;;;;;12.68;80.17;97259.95;107145;1277;22668;-89
2023/10/05 06:52:46;;;;;;;3.00;1.50;;;;;;;12.71;79.88;97259.40;107038;1277;139132;-88
2023/10/05 06:55:15;;;;;;;3.50;1.40;;;;;;;12.73;80.08;97261.45;109825;1273;22566;-88
2023/10/05 06:57:45;;;;;;;3.10;1.70;;;;;;;12.76;80.32;97262.45;107093;1259;138045;-88
2023/10/05 07:00:17;;;;;;;5.40;1.90;;;;;;;12.78;79.96;97261.23;107285;1278;25502;-88
2023/10/05 07:02:44;;;;;;;3.50;1.50;;;;;;;12.79;79.90;97262.79;107242;1278;22499;-89
2023/10/05 07:05:11;;;;;;;5.30;1.80;;;;;;;12.81;79.80;97264.82;106925;1275;146380;-89
2023/10/05 07:07:38;;;;;;;3.50;1.40;;;;;;;12.84;80.01;97264.70;107147;1276;25528;-88
2023/10/05 07:10:06;;;;;;;2.50;1.30;;;;;;;12.85;79.63;97263.86;107090;1278;139539;-88
2023/10/05 07:12:35;;;;;;;3.20;1.30;;;;;;;12.87;79.58;97267.19;107269;1267;24380;-88
2023/10/05 07:15:02;;;;;;;2.20;1.00;;;;;;;12.89;79.35;97268.50;107422;1275;22661;-88
2023/10/05 07:17:29;;;;;;;2.50;1.40;;;;;;;12.91;79.64;97272.56;107152;1273;137871;-88
2023/10/05 07:19:56;;;;;;;3.10;1.40;;;;;;;12.94;79.75;97276.60;107269;1278;25481;-88
2023/10/05 07:22:22;;;;;;;3.70;1.70;;;;;;;12.97;79.78;97284.77;107177;1278;138701;-89
2023/10/05 07:24:49;;;;;;;3.40;1.60;;;;;;;13.01;79.69;97283.66;107286;1278;25297;-88
2023/10/05 07:27:17;;;;;;;3.90;1.70;;;;;;;13.04;79.55;97282.41;107132;1278;22572;-88
2023/10/05 07:29:46;;;;;;;2.90;1.20;;;;;;;13.08;79.24;97281.27;107119;1278;137797;-88
2023/10/05 07:32:13;;;;;;;3.10;1.40;;;;;;;13.11;79.13;97281.76;107079;1277;25472;-89
2023/10/05 07:34:43;;;;;;;2.60;1.50;;;;;;;13.14;79.08;97287.46;107009;1266;138339;-88
2023/10/05 07:37:10;;;;;;;2.70;1.40;;;;;;;13.17;79.22;97283.19;107245;1278;22673;-87
2023/10/05 07:39:42;;;;;;;2.90;1.50;;;;;;;13.19;79.15;97282.14;107123;1272;138072;-88
2023/10/05 07:42:08;;;;;;;4.10;1.40;;;;;;;13.21;79.17;97284.65;107202;1278;24173;-89
2023/10/05 07:44:39;;;;;;;3.10;1.60;;;;;;;13.24;78.95;97277.25;107181;1278;22538;-88
2023/10/05 07:47:06;;;;;;;2.40;1.20;;;;;;;13.26;78.82;97270.55;107176;1277;138278;-88
2023/10/05 07:49:34;;;;;;;3.50;1.90;;;;;;;13.28;78.75;97266.51;107093;1278;24210;-88
2023/10/05 07:52:03;;;;;;;4.00;1.60;;;;;;;13.29;78.29;97268.90;107108;1278;138653;-89
2023/10/05 07:54:34;;;;;;;4.30;1.60;;;;;;;13.32;77.87;97273.48;107247;1278;24067;-88
2023/10/05 07:57:01;;;;;;;3.30;1.50;;;;;;;13.33;78.02;97278.16;107254;1277;23115;-88
2023/10/05 07:59:28;;;;;;;2.80;1.20;;;;;;;13.35;78.10;97280.39;106955;1278;137997;-89
2023/10/05 08:01:56;;;;;;;3.20;1.60;;;;;;;13.37;77.90;97282.53;107299;1278;25386;-87
2023/10/05 08:04:22;;;;;;;2.40;1.40;;;;;;;13.38;77.62;97282.52;107149;1278;138608;-88
2023/10/05 08:06:49;;;;;;;2.50;1.40;;;;;;;13.39;77.37;97277.54;107178;1278;22534;-89
2023/10/05 08:09:20;;;;;;;3.20;1.50;;;;;;;13.41;77.48;97276.56;107296;1272;24075;-89
2023/10/05 08:11:50;;;;;;;3.70;1.80;;;;;;;13.43;77.76;97273.38;107137;1275;137847;-88
2023/10/05 08:14:17;;;;;;;3.00;1.50;;;;;;;13.46;77.73;97270.33;107086;1278;22760;-89
2023/10/05 08:16:45;;;;;;;3.00;1.60;;;;;;;13.48;77.35;97273.00;107159;1277;138244;-87
2023/10/05 08:19:12;;;;;;;2.40;1.30;;;;;;;13.50;77.23;97273.81;107286;1278;24354;-88
2023/10/05 08:21:41;;;;;;;2.80;1.20;;;;;;;13.52;77.09;97272.37;107175;1272;138050;-89
2023/10/05 08:24:08;;;;;;;3.00;1.40;;;;;;;13.54;77.22;97274.27;107339;1273;24131;-88
2023/10/05 08:26:34;;;;;;;2.60;1.20;;;;;;;13.56;77.70;97273.63;107272;1272;22546;-88
2023/10/05 08:29:01;;;;;;;4.40;1.60;;;;;;;13.59;77.20;97270.69;107046;1278;137921;-88
2023/10/05 08:31:28;;;;;;;3.40;1.40;;;;;;;13.62;77.11;97270.73;107194;1270;24359;-88
2023/10/05 08:33:54;;;;;;;3.60;1.50;;;;;;;13.63;76.55;97270.70;107122;1278;138063;-89
2023/10/05 08:36:21;;;;;;;3.30;1.50;;;;;;;13.65;76.56;97267.35;107289;1278;25408;-88
2023/10/05 08:38:48;;;;;;;3.10;1.50;;;;;;;13.66;76.78;97266.81;110194;1273;22484;-88
2023/10/05 08:41:24;;;;;;;3.70;1.90;;;;;;;13.69;77.11;97267.07;110140;1278;139359;-89
2023/10/05 08:43:50;;;;;;;4.80;2.10;;;;;;;13.74;77.13;97269.62;110277;1278;22903;-89
2023/10/05 08:46:18;;;;;;;2.50;1.60;;;;;;;13.78;76.69;97268.55;110152;1278;139154;-89
2023/10/05 08:48:46;;;;;;;3.80;1.70;;;;;;;13.83;76.80;97261.27;110210;1278;22436;-89
2023/10/05 08:51:14;;;;;;;4.10;1.50;;;;;;;13.88;76.71;97257.59;107870;1278;22654;-88
2023/10/05 08:53:43;;;;;;;2.50;1.30;;;;;;;13.92;76.52;97257.88;107145;1257;137786;-88
2023/10/05 08:56:15;;;;;;;2.10;1.40;;;;;;;13.97;76.34;97257.17;109521;1278;23889;-89
2023/10/05 08:58:42;;;;;;;3.60;1.60;;;;;;;14.01;76.20;97252.34;106970;1278;138635;-88
2023/10/05 09:01:25;;;;;;;2.60;1.40;;;;;;;14.05;75.88;97244.19;107223;1278;23305;-88
2023/10/05 09:04:01;;;;;;;4.10;1.40;;;;;;;14.08;75.55;97244.63;107084;1278;138061;-88
2023/10/05 09:06:27;;;;;;;3.30;1.40;;;;;;;14.12;75.85;97247.88;107216;1276;24264;-88
2023/10/05 09:11:33;;;;;;;2.30;1.50;;;;;;;14.19;75.50;97240.70;107148;1276;138784;-88
2023/10/05 09:14:05;;;;;;;2.70;1.50;;;;;;;14.23;75.18;97238.73;107134;1278;24347;-89
2023/10/05 09:16:41;;;;;;;2.50;1.20;;;;;;;14.28;75.63;97244.98;107178;1272;137854;-88
2023/10/05 09:19:17;;;;;;;2.70;1.10;;;;;;;14.33;75.26;97245.66;107212;1278;22636;-88
2023/10/05 09:24:29;;;;;;;3.20;1.60;;;;;;;14.38;74.64;97239.79;107268;1278;24350;-88
2023/10/05 09:26:57;;;;;;;3.10;1.70;;;;;;;14.40;75.03;97238.48;107161;1278;22590;-88
2023/10/05 09:29:32;;;;;;;3.70;1.10;;;;;;;14.45;75.45;97238.02;106974;1278;137815;-88
2023/10/05 09:31:59;;;;;;;3.80;1.50;;;;;;;14.50;75.59;97241.64;107181;1272;22531;-88
2023/10/05 09:34:41;;;;;;;2.40;1.10;;;;;;;14.53;74.91;97236.56;107192;1278;137879;-88
2023/10/05 09:37:09;;;;;;;4.30;1.60;;;;;;;14.57;74.62;97238.48;110155;1272;22229;-89
2023/10/05 09:39:43;;;;;;;3.40;1.50;;;;;;;14.61;74.75;97239.86;109152;1278;138013;-88
2023/10/05 09:42:14;;;;;;;3.00;1.80;;;;;;;14.67;75.27;97240.73;110245;1278;22245;-89
2023/10/05 09:44:46;;;;;;;5.20;1.90;;;;;;;14.72;74.40;97234.50;110228;1278;22222;-89
2023/10/05 09:47:13;;;;;;;3.90;1.60;;;;;;;14.77;73.32;97232.71;109937;1278;139414;-89
2023/10/05 09:49:40;;;;;;;4.20;1.90;;;;;;;14.81;73.65;97227.66;110060;1279;22254;-89
2023/10/05 09:52:08;;;;;;;2.80;1.40;;;;;;;14.85;73.69;97227.38;107926;1272;137873;-88
2023/10/05 09:54:36;;;;;;;4.70;2.10;;;;;;;14.89;74.25;97221.58;107075;1278;25481;-88
2023/10/05 09:57:10;;;;;;;3.70;2.10;;;;;;;14.96;73.86;97218.69;107224;1278;24990;-88
2023/10/05 09:59:41;;;;;;;3.10;1.70;;;;;;;15.00;73.94;97222.52;107087;1278;137113;-88
2023/10/05 10:02:12;;;;;;;2.30;1.40;;;;;;;15.05;73.34;97221.30;107107;1272;23332;-89
2023/10/05 10:04:39;;;;;;;3.60;1.60;;;;;;;15.09;73.01;97216.02;107016;1278;138065;-88
2023/10/05 10:07:22;;;;;;;3.90;1.50;;;;;;;15.14;72.93;97219.56;107127;1273;24190;-88
2023/10/05 10:09:53;;;;;;;3.20;1.50;;;;;;;15.19;72.62;97216.46;107776;1278;137221;-88
2023/10/05 10:12:25;;;;;;;4.30;1.40;;;;;;;15.25;72.39;97210.33;107131;1278;25495;-89
2023/10/05 10:14:55;;;;;;;;;;;;;;;15.32;72.69;97213.90;107187;1278;22590;-88
2023/10/05 10:17:24;;;;;;;3.40;1.70;;;;;;;15.37;73.22;97216.38;107157;1278;124368;-88
2023/10/05 10:20:18;;;;;;;2.70;1.50;;;;;;;15.41;73.02;97214.98;107213;1278;25328;-89
2023/10/05 10:22:55;;;;;;;4.30;1.60;;;;;;;15.47;73.00;97213.43;107122;1277;137558;-89
2023/10/05 10:25:40;;;;;;;4.00;1.70;;;;;;;15.49;71.83;97214.66;107079;1278;22749;-88
2023/10/05 10:28:24;;;;;;;3.30;1.50;;;;;;;15.51;72.05;97206.37;106917;1273;137665;-89
2023/10/05 10:31:14;;;;;;;2.10;1.30;;;;;;;15.52;71.71;97203.99;109436;1278;24350;-88
2023/10/05 10:33:41;;;;;;;3.20;1.70;;;;;;;15.55;71.82;97200.58;107128;1276;137375;-88
2023/10/05 10:36:22;;;;;;;3.10;1.50;;;;;;;15.61;71.98;97204.30;107105;1273;22555;-88
2023/10/05 10:38:50;;;;;;;2.50;1.40;;;;;;;15.66;71.52;97192.38;107281;1278;24200;-88
2023/10/05 10:41:18;;;;;;;3.10;1.60;;;;;;;15.70;72.47;97194.08;110039;1278;138814;-88
2023/10/05 10:43:49;;;;;;;2.50;1.40;;;;;;;15.76;72.03;97186.16;110200;1278;22331;-89
2023/10/05 10:46:20;;;;;;;2.50;1.60;;;;;;;15.81;71.89;97178.75;107053;1278;137529;-89
2023/10/05 10:48:53;;;;;;;2.50;1.20;;;;;;;15.84;72.22;97177.71;107205;1278;25178;-89
2023/10/05 10:51:21;;;;;;;3.80;1.80;;;;;;;15.90;71.26;97176.11;107241;1277;22642;-88
2023/10/05 10:53:55;;;;;;;5.10;1.70;;;;;;;15.94;70.14;97167.30;107139;1272;137608;-88
2023/10/05 10:56:27;;;;;;;3.10;1.60;;;;;;;16.00;69.84;97164.46;110219;1278;22870;-89
2023/10/05 10:59:05;;;;;;;;;;;;;;;16.05;69.56;97163.10;109773;1278;137504;-88
2023/10/05 11:01:43;;;;;;;4.70;1.90;;;;;;;16.09;70.05;97164.72;107181;1278;23141;-88
2023/10/05 11:04:26;;;;;;;3.80;1.60;;;;;;;16.14;69.10;97165.08;107002;1278;138170;-88
2023/10/05 11:06:56;;;;;;;3.40;1.70;;;;;;;16.18;69.04;97160.32;107074;1278;22539;-88
2023/10/05 11:09:30;;;;;;;4.70;1.90;;;;;;;16.22;69.17;97157.70;107163;1278;22541;-88
2023/10/05 11:12:08;;;;;;;3.70;1.90;;;;;;;16.28;67.74;97156.88;107399;1278;137759;-86
2023/10/05 11:14:36;;;;;;;3.50;1.50;;;;;;;16.33;67.59;97152.41;107212;1278;22767;-87
2023/10/05 11:17:11;;;;;;;5.30;1.80;;;;;;;16.41;68.68;97146.29;110084;1278;137859;-89
2023/10/05 11:19:38;;;;;;;4.10;1.60;;;;;;;16.49;68.23;97144.00;107167;1272;22638;-88
2023/10/05 11:22:07;;;;;;;4.40;1.50;;;;;;;16.54;68.23;97144.64;107021;1278;137693;-87
2023/10/05 11:24:39;;;;;;;3.00;1.40;;;;;;;16.54;67.93;97145.17;107147;1275;25431;-89
2023/10/05 11:27:14;;;;;;;3.70;1.50;;;;;;;16.51;67.84;97141.58;107187;1278;22531;-88
2023/10/05 11:29:49;;;;;;;2.50;1.60;;;;;;;16.52;68.10;97138.23;107051;1272;137416;-88
2023/10/05 11:32:20;;;;;;;3.70;2.00;;;;;;;16.55;67.87;97134.80;107231;1273;22546;-88
2023/10/05 11:34:46;;;;;;;3.40;2.10;;;;;;;16.59;66.35;97131.20;107066;1273;138974;-88
2023/10/05 11:37:17;;;;;;;2.60;1.60;;;;;;;16.59;67.22;97130.08;107201;1278;24575;-88
2023/10/05 11:39:50;;;;;;;4.90;1.90;;;;;;;16.62;65.77;97131.91;110102;1278;138069;-89
2023/10/05 11:42:34;;;;;;;3.30;1.70;;;;;;;16.62;66.59;97126.05;110247;1275;22248;-89
2023/10/05 11:45:04;;;;;;;3.30;1.40;;;;;;;16.66;67.03;97121.90;110308;1278;22227;-89
2023/10/05 11:47:35;;;;;;;2.60;1.40;;;;;;;16.68;65.39;97119.66;108737;1278;138268;-88
2023/10/05 11:50:08;;;;;;;3.10;1.40;;;;;;;16.65;63.44;97125.62;107010;1278;22536;-88
2023/10/05 11:52:38;;;;;;;2.40;1.30;;;;;;;16.60;63.92;97121.45;107109;1278;137336;-88
2023/10/05 11:55:11;;;;;;;4.00;1.30;;;;;;;16.57;64.03;97118.68;107099;1278;24063;-88
2023/10/05 11:57:38;;;;;;;3.70;1.90;;;;;;;16.58;64.02;97119.45;110118;1278;137612;-88
2023/10/05 12:00:06;;;;;;;3.50;1.60;;;;;;;16.62;64.36;97113.02;107977;1277;22543;-88